createdAt,value
2023-04-09T00:00:38.095Z,34.25
2023-04-09T00:01:40.167Z,17.88
2023-04-09T00:02:42.440Z,22.33
2023-04-09T00:03:44.651Z,17.88
2023-04-09T00:04:46.974Z,18.77
2023-04-09T00:05:48.975Z,23.27
2023-04-09T00:06:51.021Z,26.40
2023-04-09T00:07:53.282Z,21.25
2023-04-09T00:08:55.277Z,24.52
2023-04-09T00:09:57.305Z,21.85
2023-04-09T00:10:59.959Z,29.73
2023-04-09T00:12:02.310Z,30.65
2023-04-09T00:13:04.393Z,25.70
2023-04-09T00:14:06.436Z,28.27
2023-04-09T00:15:11.285Z,28.17
2023-04-09T00:16:19.727Z,28.38
2023-04-09T00:17:21.718Z,27.45
2023-04-09T00:18:23.954Z,24.50
2023-04-09T00:19:25.915Z,29.10
2023-04-09T00:20:28.008Z,26.33
2023-04-09T00:21:29.919Z,27.48
2023-04-09T00:22:31.952Z,31.38
2023-04-09T00:23:34.644Z,30.55
2023-04-09T00:24:36.675Z,31.40
2023-04-09T00:25:38.775Z,35.35
2023-04-09T00:26:40.848Z,35.53
2023-04-09T00:27:42.795Z,38.42
2023-04-09T00:28:44.798Z,29.63
2023-04-09T00:29:47.666Z,32.35
2023-04-09T00:30:49.723Z,36.42
2023-04-09T00:31:51.812Z,33.45
2023-04-09T00:32:53.826Z,38.63
2023-04-09T00:33:56.262Z,39.28
2023-04-09T00:34:58.395Z,37.85
2023-04-09T00:36:00.618Z,45.33
2023-04-09T00:37:02.688Z,42.30
2023-04-09T00:38:04.596Z,42.88
2023-04-09T00:39:06.614Z,38.75
2023-04-09T00:40:08.964Z,36.47
2023-04-09T00:41:11.041Z,38.60
2023-04-09T00:42:12.935Z,40.05
2023-04-09T00:43:14.972Z,34.88
2023-04-09T00:44:16.860Z,36.20
2023-04-09T00:45:18.940Z,39.53
2023-04-09T00:46:21.067Z,37.55
2023-04-09T00:47:23.177Z,38.42
2023-04-09T00:48:25.748Z,33.78
2023-04-09T00:49:28.015Z,44.55
2023-04-09T00:50:29.932Z,35.35
2023-04-09T00:51:32.116Z,31.88
2023-04-09T00:52:34.232Z,36.25
2023-04-09T00:53:36.292Z,37.03
2023-04-09T00:54:38.313Z,39.05
2023-04-09T00:55:41.778Z,34.10
2023-04-09T00:56:44.378Z,36.25
2023-04-09T00:57:47.089Z,34.33
2023-04-09T00:58:49.849Z,30.95
2023-04-09T00:59:52.127Z,36.17
2023-04-09T01:00:54.129Z,36.50
2023-04-09T01:01:56.538Z,32.92
2023-04-09T01:03:00.991Z,38.22
2023-04-09T01:04:03.636Z,31.15
2023-04-09T01:05:06.574Z,30.92
2023-04-09T01:06:16.520Z,38.95
2023-04-09T01:07:34.816Z,40.97
2023-04-09T01:08:59.785Z,29.92
2023-04-09T01:10:12.863Z,23.85
2023-04-09T01:11:33.323Z,29.55
2023-04-09T01:13:09.298Z,31.65
2023-04-09T01:14:36.256Z,35.03
2023-04-09T01:15:46.957Z,33.15
2023-04-09T01:17:01.188Z,26.55
2023-04-09T01:18:16.193Z,28.92
2023-04-09T01:19:33.020Z,29.38
2023-04-09T01:21:38.848Z,29.50
2023-04-09T01:23:03.213Z,33.97
2023-04-09T01:24:38.895Z,28.23
2023-04-09T01:27:10.374Z,30.85
2023-04-09T01:28:19.843Z,35.28
2023-04-09T01:29:24.211Z,40.38
2023-04-09T01:30:28.438Z,42.72
2023-04-09T01:31:33.231Z,33.65
2023-04-09T01:32:39.003Z,47.03
2023-04-09T01:33:42.553Z,36.03
2023-04-09T01:34:47.829Z,45.80
2023-04-09T01:35:51.171Z,55.80
2023-04-09T01:36:57.025Z,47.42
2023-04-09T01:38:00.954Z,42.20
2023-04-09T01:39:03.986Z,50.10
2023-04-09T01:40:07.887Z,41.17
2023-04-09T01:41:14.684Z,44.50
2023-04-09T01:42:17.925Z,41.40
2023-04-09T01:43:21.334Z,33.92
2023-04-09T01:44:24.954Z,55.58
2023-04-09T01:45:27.539Z,49.92
2023-04-09T01:46:30.226Z,51.72
2023-04-09T01:47:32.787Z,45.33
2023-04-09T01:48:34.985Z,35.72
2023-04-09T01:49:38.854Z,43.08
2023-04-09T01:50:41.184Z,55.03
2023-04-09T01:51:43.775Z,45.58
2023-04-09T01:52:46.164Z,35.28
2023-04-09T01:53:49.171Z,49.38
2023-04-09T01:54:51.121Z,40.17
2023-04-09T01:55:53.078Z,43.35
2023-04-09T01:56:58.172Z,37.40
2023-04-09T01:58:00.188Z,35.25
2023-04-09T01:59:02.074Z,38.72
2023-04-09T02:00:07.191Z,27.90
2023-04-09T02:01:35.767Z,33.75
2023-04-09T02:02:47.016Z,37.97
2023-04-09T02:03:58.910Z,32.65
2023-04-09T02:05:06.260Z,27.98
2023-04-09T02:06:16.311Z,30.08
2023-04-09T02:07:42.887Z,28.67
2023-04-09T02:08:47.616Z,38.03
2023-04-09T02:09:53.033Z,33.03
2023-04-09T02:10:59.170Z,32.22
2023-04-09T02:12:06.162Z,29.38
2023-04-09T02:13:11.672Z,36.85
2023-04-09T02:14:14.156Z,30.40
2023-04-09T02:15:16.710Z,36.15
2023-04-09T02:16:19.599Z,27.60
2023-04-09T02:17:21.805Z,31.70
2023-04-09T02:18:28.768Z,31.75
2023-04-09T02:19:44.971Z,34.53
2023-04-09T02:20:47.329Z,32.95
2023-04-09T02:21:49.600Z,28.23
2023-04-09T02:22:51.553Z,32.70
2023-04-09T02:23:53.444Z,43.92
2023-04-09T02:24:56.027Z,33.15
2023-04-09T02:25:58.085Z,29.88
2023-04-09T02:27:00.234Z,38.80
2023-04-09T02:28:02.112Z,28.67
2023-04-09T02:29:04.080Z,33.15
2023-04-09T02:30:06.638Z,29.40
2023-04-09T02:31:08.548Z,38.08
2023-04-09T02:32:10.636Z,36.15
2023-04-09T02:33:12.627Z,42.30
2023-04-09T02:34:14.549Z,39.53
2023-04-09T02:35:16.729Z,48.20
2023-04-09T02:36:18.637Z,55.78
2023-04-09T02:37:20.641Z,46.45
2023-04-09T02:38:22.911Z,52.75
2023-04-09T02:39:24.842Z,43.30
2023-04-09T02:40:27.134Z,44.20
2023-04-09T02:41:29.044Z,46.67
2023-04-09T02:42:31.335Z,44.83
2023-04-09T02:43:33.307Z,56.10
2023-04-09T02:44:35.513Z,56.70
2023-04-09T02:45:37.688Z,66.20
2023-04-09T02:46:42.682Z,74.82
2023-04-09T02:47:44.877Z,69.28
2023-04-09T02:48:46.805Z,58.85
2023-04-09T02:49:48.764Z,62.95
2023-04-09T02:50:50.661Z,65.43
2023-04-09T02:51:52.711Z,66.68
2023-04-09T02:52:54.915Z,68.25
2023-04-09T02:53:56.862Z,59.30
2023-04-09T02:54:58.989Z,61.33
2023-04-09T02:56:00.967Z,47.35
2023-04-09T02:57:02.861Z,51.85
2023-04-09T02:58:04.938Z,47.22
2023-04-09T02:59:06.845Z,42.13
2023-04-09T03:00:09.464Z,47.17
2023-04-09T03:01:11.500Z,38.92
2023-04-09T03:02:13.672Z,39.55
2023-04-09T03:03:16.103Z,34.88
2023-04-09T03:04:18.293Z,41.10
2023-04-09T03:05:21.194Z,36.75
2023-04-09T03:06:23.142Z,36.92
2023-04-09T03:07:25.259Z,36.95
2023-04-09T03:08:27.285Z,39.90
2023-04-09T03:09:30.506Z,37.35
2023-04-09T03:10:32.624Z,33.38
2023-04-09T03:11:34.713Z,32.95
2023-04-09T03:12:36.615Z,38.45
2023-04-09T03:13:38.712Z,39.92
2023-04-09T03:14:40.741Z,35.33
2023-04-09T03:15:42.685Z,45.45
2023-04-09T03:16:44.646Z,40.22
2023-04-09T03:17:46.737Z,41.28
2023-04-09T03:18:49.160Z,41.75
2023-04-09T03:19:51.478Z,41.97
2023-04-09T03:20:53.513Z,43.47
2023-04-09T03:21:55.431Z,39.03
2023-04-09T03:22:57.422Z,41.55
2023-04-09T03:23:59.272Z,37.88
2023-04-09T03:25:01.357Z,41.45
2023-04-09T03:26:04.890Z,45.35
2023-04-09T03:27:07.097Z,35.50
2023-04-09T03:28:09.270Z,41.53
2023-04-09T03:29:11.196Z,37.22
2023-04-09T03:30:13.238Z,35.63
2023-04-09T03:31:15.294Z,39.03
2023-04-09T03:32:18.973Z,35.25
2023-04-09T03:33:21.171Z,35.60
2023-04-09T03:34:24.886Z,38.45
2023-04-09T03:35:27.044Z,39.42
2023-04-09T03:36:28.978Z,33.38
2023-04-09T03:37:30.913Z,38.72
2023-04-09T03:38:32.869Z,38.40
2023-04-09T03:39:34.899Z,33.95
2023-04-09T03:40:36.970Z,37.28
2023-04-09T03:41:38.942Z,31.92
2023-04-09T03:42:42.926Z,31.75
2023-04-09T03:44:46.753Z,34.70
2023-04-09T03:45:48.762Z,32.08
2023-04-09T03:46:50.756Z,31.63
2023-04-09T03:47:52.788Z,38.00
2023-04-09T03:48:54.911Z,36.63
2023-04-09T03:49:57.128Z,36.25
2023-04-09T03:50:59.256Z,31.02
2023-04-09T03:52:01.190Z,32.35
2023-04-09T03:53:03.074Z,33.47
2023-04-09T03:54:05.027Z,33.10
2023-04-09T03:55:07.716Z,28.95
2023-04-09T03:56:10.436Z,35.00
2023-04-09T03:57:12.332Z,29.10
2023-04-09T03:58:14.240Z,36.50
2023-04-09T03:59:16.277Z,30.15
2023-04-09T04:00:18.352Z,34.40
2023-04-09T04:01:20.488Z,31.63
2023-04-09T04:02:22.588Z,34.33
2023-04-09T04:03:24.766Z,30.75
2023-04-09T04:04:26.848Z,26.55
2023-04-09T04:05:28.962Z,32.95
2023-04-09T04:06:34.388Z,28.02
2023-04-09T04:07:37.167Z,32.15
2023-04-09T04:08:39.103Z,31.10
2023-04-09T04:09:41.051Z,33.75
2023-04-09T04:10:43.314Z,27.40
2023-04-09T04:11:45.512Z,27.10
2023-04-09T04:12:47.647Z,30.90
2023-04-09T04:13:49.713Z,27.73
2023-04-09T04:14:51.662Z,30.73
2023-04-09T04:15:53.669Z,32.08
2023-04-09T04:16:56.212Z,30.17
2023-04-09T04:17:58.135Z,30.17
2023-04-09T04:19:00.282Z,28.50
2023-04-09T04:20:02.313Z,33.25
2023-04-09T04:21:05.463Z,29.92
2023-04-09T04:22:07.415Z,25.33
2023-04-09T04:23:09.358Z,30.17
2023-04-09T04:24:11.254Z,33.60
2023-04-09T04:25:13.598Z,26.88
2023-04-09T04:26:15.785Z,26.50
2023-04-09T04:27:18.037Z,38.10
2023-04-09T04:28:20.030Z,32.08
2023-04-09T04:29:22.140Z,30.05
2023-04-09T04:30:24.207Z,35.38
2023-04-09T04:31:26.297Z,33.63
2023-04-09T04:32:28.670Z,30.13
2023-04-09T04:33:30.813Z,36.55
2023-04-09T04:34:32.876Z,34.20
2023-04-09T04:35:35.081Z,29.48
2023-04-09T04:36:37.456Z,28.02
2023-04-09T04:37:40.730Z,30.38
2023-04-09T04:38:42.858Z,40.25
2023-04-09T04:39:45.140Z,31.00
2023-04-09T04:40:47.106Z,30.58
2023-04-09T04:41:49.629Z,33.63
2023-04-09T04:42:51.797Z,31.83
2023-04-09T04:43:53.869Z,35.90
2023-04-09T04:44:55.954Z,40.35
2023-04-09T04:45:58.211Z,33.55
2023-04-09T04:47:00.287Z,34.63
2023-04-09T04:48:02.452Z,35.65
2023-04-09T04:49:04.440Z,34.58
2023-04-09T04:50:07.420Z,30.30
2023-04-09T04:51:09.469Z,37.75
2023-04-09T04:52:11.509Z,34.67
2023-04-09T04:53:13.474Z,28.40
2023-04-09T04:54:15.531Z,34.53
2023-04-09T04:55:17.494Z,27.17
2023-04-09T04:56:19.431Z,32.67
2023-04-09T04:57:21.381Z,31.15
2023-04-09T04:58:23.352Z,25.48
2023-04-09T04:59:25.324Z,27.20
2023-04-09T05:00:27.423Z,20.52
2023-04-09T05:01:29.375Z,19.77
2023-04-09T05:02:31.514Z,20.92
2023-04-09T05:03:33.529Z,22.65
2023-04-09T05:04:35.730Z,17.92
2023-04-09T05:05:37.780Z,20.70
2023-04-09T05:06:39.719Z,14.60
2023-04-09T05:07:41.637Z,24.13
2023-04-09T05:08:43.658Z,21.92
2023-04-09T05:09:45.783Z,15.43
2023-04-09T05:10:47.766Z,15.88
2023-04-09T05:11:49.668Z,16.25
2023-04-09T05:12:51.719Z,14.45
2023-04-09T05:13:53.840Z,13.18
2023-04-09T05:14:56.437Z,12.70
2023-04-09T05:15:58.669Z,14.55
2023-04-09T05:17:00.808Z,11.50
2023-04-09T05:18:02.716Z,14.35
2023-04-09T05:19:05.023Z,20.40
2023-04-09T05:20:07.573Z,15.02
2023-04-09T05:21:09.610Z,20.10
2023-04-09T05:22:11.560Z,15.30
2023-04-09T05:23:13.491Z,19.13
2023-04-09T05:24:15.634Z,18.77
2023-04-09T05:25:17.640Z,19.70
2023-04-09T05:26:19.708Z,14.95
2023-04-09T05:27:24.341Z,17.13
2023-04-09T05:28:27.180Z,17.13
2023-04-09T05:29:29.234Z,13.52
2023-04-09T05:30:31.186Z,14.60
2023-04-09T05:31:33.527Z,14.45
2023-04-09T05:32:35.577Z,17.05
2023-04-09T05:33:38.484Z,15.40
2023-04-09T05:34:40.520Z,17.83
2023-04-09T05:35:42.685Z,22.92
2023-04-09T05:36:44.619Z,23.48
2023-04-09T05:37:46.621Z,12.88
2023-04-09T05:38:48.591Z,16.23
2023-04-09T05:39:50.549Z,14.50
2023-04-09T05:40:52.440Z,17.50
2023-04-09T05:41:54.732Z,21.48
2023-04-09T05:42:56.721Z,15.90
2023-04-09T05:44:00.478Z,19.45
2023-04-09T05:45:03.414Z,19.27
2023-04-09T05:46:06.523Z,18.55
2023-04-09T05:47:08.591Z,18.13
2023-04-09T05:48:10.620Z,18.08
2023-04-09T05:49:12.656Z,14.25
2023-04-09T05:50:14.600Z,15.30
2023-04-09T05:51:16.603Z,15.13
2023-04-09T05:52:18.566Z,20.50
2023-04-09T05:53:21.154Z,23.20
2023-04-09T05:54:23.326Z,22.02
2023-04-09T05:55:25.403Z,17.42
2023-04-09T05:56:28.290Z,17.48
2023-04-09T05:57:31.330Z,13.25
2023-04-09T05:58:33.261Z,13.90
2023-04-09T05:59:35.281Z,15.20
2023-04-09T06:00:37.400Z,16.27
2023-04-09T06:01:39.687Z,18.92
2023-04-09T06:02:41.850Z,18.60
2023-04-09T06:03:44.006Z,13.45
2023-04-09T06:04:46.198Z,21.25
2023-04-09T06:05:48.520Z,18.70
2023-04-09T06:06:51.682Z,20.42
2023-04-09T06:07:53.586Z,15.48
2023-04-09T06:08:55.638Z,15.38
2023-04-09T06:09:57.834Z,17.55
2023-04-09T06:10:59.790Z,15.25
2023-04-09T06:12:02.961Z,13.43
2023-04-09T06:13:06.224Z,12.75
2023-04-09T06:14:08.443Z,9.85
2023-04-09T06:15:10.862Z,16.02
2023-04-09T06:16:12.950Z,18.90
2023-04-09T06:17:15.206Z,10.43
2023-04-09T06:18:17.376Z,17.92
2023-04-09T06:19:19.794Z,9.98
2023-04-09T06:20:21.808Z,9.93
2023-04-09T06:21:24.029Z,13.68
2023-04-09T06:22:25.981Z,10.43
2023-04-09T06:23:27.951Z,9.85
2023-04-09T06:24:32.491Z,11.63
2023-04-09T06:25:36.730Z,14.43
2023-04-09T06:26:38.775Z,10.88
2023-04-09T06:27:40.906Z,11.52
2023-04-09T06:28:43.976Z,11.75
2023-04-09T06:29:46.079Z,12.90
2023-04-09T06:30:49.324Z,11.80
2023-04-09T06:31:51.518Z,10.60
2023-04-09T06:32:55.282Z,12.52
2023-04-09T06:33:57.780Z,11.85
2023-04-09T06:34:59.744Z,11.23
2023-04-09T06:36:01.946Z,13.73
2023-04-09T06:37:04.169Z,9.60
2023-04-09T06:38:07.116Z,16.20
2023-04-09T06:39:09.229Z,11.32
2023-04-09T06:40:11.891Z,11.30
2023-04-09T06:41:15.049Z,12.10
2023-04-09T06:42:17.023Z,10.88
2023-04-09T06:43:18.914Z,8.48
2023-04-09T06:44:21.779Z,10.27
2023-04-09T06:45:23.915Z,13.75
2023-04-09T06:46:26.257Z,12.40
2023-04-09T06:47:28.332Z,12.45
2023-04-09T06:48:31.416Z,9.70
2023-04-09T06:49:33.355Z,10.00
2023-04-09T06:50:35.601Z,9.18
2023-04-09T06:51:37.454Z,11.15
2023-04-09T06:52:39.584Z,10.65
2023-04-09T06:53:41.614Z,11.27
2023-04-09T06:54:43.604Z,8.13
2023-04-09T06:55:46.006Z,8.60
2023-04-09T06:56:48.102Z,10.27
2023-04-09T06:57:50.326Z,10.60
2023-04-09T06:58:52.293Z,10.40
2023-04-09T06:59:54.336Z,6.32
2023-04-09T07:00:56.570Z,9.88
2023-04-09T07:01:58.700Z,12.65
2023-04-09T07:03:00.948Z,10.23
2023-04-09T07:04:03.629Z,11.98
2023-04-09T07:05:06.191Z,15.35
2023-04-09T07:06:08.215Z,18.77
2023-04-09T07:07:10.861Z,9.18
2023-04-09T07:08:13.064Z,8.55
2023-04-09T07:09:15.135Z,8.65
2023-04-09T07:10:17.158Z,8.50
2023-04-09T07:11:19.220Z,8.23
2023-04-09T07:12:31.876Z,6.05
2023-04-09T07:13:33.924Z,6.30
2023-04-09T07:14:35.862Z,10.15
2023-04-09T07:15:39.493Z,5.93
2023-04-09T07:16:42.064Z,7.93
2023-04-09T07:17:44.116Z,9.45
2023-04-09T07:18:46.265Z,10.20
2023-04-09T07:19:48.240Z,7.75
2023-04-09T07:20:50.126Z,11.00
2023-04-09T07:21:52.308Z,6.45
2023-04-09T07:22:54.491Z,8.38
2023-04-09T07:23:56.616Z,8.23
2023-04-09T07:24:58.525Z,6.95
2023-04-09T07:26:03.521Z,7.93
2023-04-09T07:27:05.753Z,8.93
2023-04-09T07:28:07.804Z,6.88
2023-04-09T07:29:09.889Z,5.95
2023-04-09T07:30:11.988Z,9.63
2023-04-09T07:31:14.593Z,9.27
2023-04-09T07:32:16.960Z,10.15
2023-04-09T07:33:19.022Z,9.48
2023-04-09T07:34:21.120Z,7.88
2023-04-09T07:35:23.134Z,8.05
2023-04-09T07:36:26.050Z,9.70
2023-04-09T07:37:28.198Z,7.30
2023-04-09T07:38:30.643Z,7.20
2023-04-09T07:39:32.551Z,6.70
2023-04-09T07:40:35.378Z,5.90
2023-04-09T07:41:37.688Z,7.38
2023-04-09T07:42:39.990Z,4.68
2023-04-09T07:43:42.056Z,9.23
2023-04-09T07:44:44.162Z,7.25
2023-04-09T07:45:49.495Z,7.35
2023-04-09T07:46:51.613Z,7.70
2023-04-09T07:47:53.699Z,8.60
2023-04-09T07:48:56.046Z,7.30
2023-04-09T07:49:58.136Z,8.00
2023-04-09T07:51:00.574Z,7.75
2023-04-09T07:52:02.611Z,9.68
2023-04-09T07:53:04.662Z,6.28
2023-04-09T07:54:06.749Z,8.52
2023-04-09T07:55:09.138Z,8.02
2023-04-09T07:56:11.365Z,6.63
2023-04-09T07:57:13.363Z,9.20
2023-04-09T07:58:16.005Z,8.27
2023-04-09T07:59:18.160Z,6.35
2023-04-09T08:00:20.159Z,5.63
2023-04-09T08:01:24.857Z,8.82
2023-04-09T08:02:27.162Z,7.40
2023-04-09T08:03:29.640Z,7.45
2023-04-09T08:04:32.129Z,9.52
2023-04-09T08:05:35.261Z,13.27
2023-04-09T08:06:37.814Z,10.13
2023-04-09T08:07:39.905Z,6.90
2023-04-09T08:08:42.061Z,6.80
2023-04-09T08:09:44.091Z,10.32
2023-04-09T08:10:46.324Z,7.07
2023-04-09T08:11:49.496Z,8.48
2023-04-09T08:12:51.404Z,6.30
2023-04-09T08:13:53.465Z,5.65
2023-04-09T08:14:55.602Z,7.18
2023-04-09T08:16:01.271Z,5.70
2023-04-09T08:17:03.519Z,6.53
2023-04-09T08:18:05.698Z,5.80
2023-04-09T08:19:12.026Z,8.30
2023-04-09T08:20:14.197Z,11.10
2023-04-09T08:21:16.518Z,7.97
2023-04-09T08:22:18.443Z,7.25
2023-04-09T08:23:20.575Z,8.82
2023-04-09T08:24:22.901Z,8.27
2023-04-09T08:25:26.680Z,7.72
2023-04-09T08:26:28.780Z,9.05
2023-04-09T08:27:30.909Z,14.65
2023-04-09T08:28:33.017Z,14.43
2023-04-09T08:29:35.180Z,14.00
2023-04-09T08:30:37.211Z,15.38
2023-04-09T08:31:39.733Z,17.55
2023-04-09T08:32:41.909Z,15.13
2023-04-09T08:33:43.904Z,10.50
2023-04-09T08:34:45.829Z,8.85
2023-04-09T08:35:47.849Z,6.15
2023-04-09T08:36:50.310Z,7.18
2023-04-09T08:37:52.330Z,8.60
2023-04-09T08:38:56.115Z,5.55
2023-04-09T08:39:58.347Z,6.78
2023-04-09T08:41:00.573Z,10.07
2023-04-09T08:42:03.921Z,8.25
2023-04-09T08:43:07.218Z,8.02
2023-04-09T08:44:09.346Z,5.10
2023-04-09T08:45:11.933Z,8.38
2023-04-09T08:46:16.788Z,5.28
2023-04-09T08:47:20.802Z,8.32
2023-04-09T08:49:25.044Z,13.02
2023-04-09T08:50:27.597Z,18.30
2023-04-09T08:51:29.557Z,8.45
2023-04-09T08:52:35.301Z,17.27
2023-04-09T08:53:38.900Z,24.17
2023-04-09T08:54:40.979Z,13.38
2023-04-09T08:55:46.553Z,9.90
2023-04-09T08:56:49.246Z,19.17
2023-04-09T08:57:51.149Z,16.60
2023-04-09T08:58:53.933Z,26.35
2023-04-09T08:59:56.099Z,32.58
2023-04-09T09:00:58.123Z,9.15
2023-04-09T09:02:11.553Z,12.38
2023-04-09T09:03:14.271Z,10.25
2023-04-09T09:04:16.464Z,8.02
2023-04-09T09:05:45.833Z,10.63
2023-04-09T09:06:47.836Z,10.23
2023-04-09T09:07:54.786Z,12.00
2023-04-09T09:09:22.967Z,12.23
2023-04-09T09:10:38.034Z,16.08
2023-04-09T09:11:41.111Z,8.60
2023-04-09T09:12:43.341Z,9.23
2023-04-09T09:13:45.813Z,10.82
2023-04-09T09:14:47.793Z,9.75
2023-04-09T09:16:12.176Z,7.65
2023-04-09T09:17:14.866Z,9.27
2023-04-09T09:18:18.699Z,6.32
2023-04-09T09:19:27.040Z,9.45
2023-04-09T09:20:29.338Z,14.50
2023-04-09T09:21:31.690Z,10.77
2023-04-09T09:22:55.284Z,13.23
2023-04-09T09:23:58.533Z,8.48
2023-04-09T09:25:00.574Z,10.18
2023-04-09T09:26:12.339Z,8.10
2023-04-09T09:27:32.801Z,10.30
2023-04-09T09:28:36.592Z,9.70
2023-04-09T09:29:43.214Z,14.52
2023-04-09T09:30:47.947Z,9.95
2023-04-09T09:31:55.752Z,11.45
2023-04-09T09:33:08.728Z,14.40
2023-04-09T09:34:10.836Z,11.00
2023-04-09T09:35:13.022Z,9.98
2023-04-09T09:36:18.797Z,8.63
2023-04-09T09:37:31.339Z,9.75
2023-04-09T09:38:33.811Z,10.65
2023-04-09T09:39:45.227Z,12.55
2023-04-09T09:40:48.181Z,11.80
2023-04-09T09:42:07.989Z,6.30
2023-04-09T09:43:11.256Z,8.48
2023-04-09T09:44:33.943Z,11.68
2023-04-09T09:45:38.077Z,11.93
2023-04-09T09:46:42.735Z,7.20
2023-04-09T09:47:46.967Z,12.43
2023-04-09T09:48:50.172Z,9.70
2023-04-09T09:49:52.591Z,9.15
2023-04-09T09:50:54.918Z,7.18
2023-04-09T09:51:59.888Z,11.57
2023-04-09T09:53:06.121Z,9.00
2023-04-09T09:54:13.095Z,10.10
2023-04-09T09:55:16.844Z,10.40
2023-04-09T09:56:23.297Z,7.72
2023-04-09T09:57:27.985Z,10.73
2023-04-09T09:58:36.971Z,13.07
2023-04-09T09:59:43.373Z,11.40
2023-04-09T10:00:48.492Z,7.55
2023-04-09T10:02:01.454Z,9.15
2023-04-09T10:03:14.555Z,12.50
2023-04-09T10:04:18.305Z,9.10
2023-04-09T10:05:25.193Z,11.10
2023-04-09T10:06:27.925Z,10.60
2023-04-09T10:07:31.063Z,9.73
2023-04-09T10:08:34.347Z,11.63
2023-04-09T10:09:38.569Z,11.30
2023-04-09T10:10:42.678Z,10.68
2023-04-09T10:11:48.121Z,12.00
2023-04-09T10:12:51.337Z,12.38
2023-04-09T10:13:59.000Z,13.48
2023-04-09T10:15:05.009Z,11.25
2023-04-09T10:16:09.085Z,9.77
2023-04-09T10:17:11.464Z,8.60
2023-04-09T10:18:13.608Z,10.57
2023-04-09T10:19:15.791Z,10.55
2023-04-09T10:20:32.878Z,10.13
2023-04-09T10:21:44.070Z,11.45
2023-04-09T10:22:50.160Z,6.93
2023-04-09T10:23:53.268Z,8.05
2023-04-09T10:24:55.975Z,9.15
2023-04-09T10:25:57.995Z,11.00
2023-04-09T10:27:10.706Z,9.30
2023-04-09T10:28:18.625Z,9.85
2023-04-09T10:29:27.968Z,11.77
2023-04-09T10:30:37.544Z,10.52
2023-04-09T10:32:07.300Z,11.50
2023-04-09T10:33:19.631Z,14.10
2023-04-09T10:34:23.736Z,9.07
2023-04-09T10:35:27.068Z,14.52
2023-04-09T10:36:31.681Z,10.82
2023-04-09T10:37:36.010Z,12.07
2023-04-09T10:38:45.144Z,8.30
2023-04-09T10:39:48.336Z,9.82
2023-04-09T10:40:53.673Z,13.27
2023-04-09T10:41:57.370Z,10.07
2023-04-09T10:43:00.466Z,10.35
2023-04-09T10:44:06.921Z,9.02
2023-04-09T10:45:10.750Z,13.98
2023-04-09T10:47:39.174Z,9.38
2023-04-09T10:48:41.263Z,10.52
2023-04-09T10:49:43.136Z,9.50
2023-04-09T10:50:45.715Z,12.52
2023-04-09T10:52:07.981Z,12.43
2023-04-09T10:53:23.904Z,9.25
2023-04-09T10:54:35.072Z,7.85
2023-04-09T10:55:41.391Z,7.85
2023-04-09T10:57:09.214Z,10.60
2023-04-09T10:58:13.643Z,10.90
2023-04-09T10:59:15.943Z,11.35
2023-04-09T11:00:19.020Z,9.57
2023-04-09T11:01:24.388Z,11.68
2023-04-09T11:02:49.116Z,10.02
2023-04-09T11:04:10.604Z,7.47
2023-04-09T11:05:19.943Z,8.77
2023-04-09T11:06:22.570Z,7.88
2023-04-09T11:07:26.070Z,7.80
2023-04-09T11:08:34.645Z,11.60
2023-04-09T11:09:36.810Z,11.00
2023-04-09T11:10:41.319Z,12.55
2023-04-09T11:11:43.347Z,12.30
2023-04-09T11:12:48.221Z,11.15
2023-04-09T11:13:50.753Z,12.63
2023-04-09T11:14:52.770Z,9.60
2023-04-09T11:15:56.318Z,18.38
2023-04-09T11:16:58.403Z,10.55
2023-04-09T11:18:02.669Z,11.40
2023-04-09T11:19:04.774Z,10.18
2023-04-09T11:20:07.865Z,10.82
2023-04-09T11:21:12.631Z,13.85
2023-04-09T11:22:15.560Z,10.85
2023-04-09T11:23:18.447Z,13.32
2023-04-09T11:24:20.493Z,11.95
2023-04-09T11:25:28.461Z,9.95
2023-04-09T11:26:37.591Z,9.50
2023-04-09T11:27:40.075Z,11.10
2023-04-09T11:28:43.579Z,12.10
2023-04-09T11:29:45.977Z,9.93
2023-04-09T11:30:50.374Z,13.23
2023-04-09T11:31:52.305Z,9.48
2023-04-09T11:32:54.555Z,12.27
2023-04-09T11:33:56.866Z,8.95
2023-04-09T11:34:58.809Z,8.68
2023-04-09T11:36:01.895Z,10.57
2023-04-09T11:37:09.296Z,10.30
2023-04-09T11:38:12.548Z,9.40
2023-04-09T11:39:14.759Z,9.25
2023-04-09T11:40:27.075Z,7.82
2023-04-09T11:41:36.468Z,10.13
2023-04-09T11:42:38.439Z,9.20
2023-04-09T11:43:40.556Z,11.05
2023-04-09T11:44:44.731Z,10.50
2023-04-09T11:45:49.696Z,7.63
2023-04-09T11:46:52.149Z,9.18
2023-04-09T11:47:55.344Z,8.73
2023-04-09T11:48:57.468Z,8.65
2023-04-09T11:49:59.954Z,11.00
2023-04-09T11:51:02.401Z,11.25
2023-04-09T11:52:05.005Z,7.15
2023-04-09T11:53:20.977Z,8.05
2023-04-09T11:54:22.961Z,7.90
2023-04-09T11:55:29.448Z,10.00
2023-04-09T11:56:32.601Z,8.15
2023-04-09T11:57:43.144Z,8.32
2023-04-09T11:58:49.401Z,7.90
2023-04-09T11:59:51.525Z,8.95
2023-04-09T12:00:58.874Z,9.70
2023-04-09T12:02:01.732Z,9.55
2023-04-09T12:03:05.655Z,12.50
2023-04-09T12:05:12.519Z,10.85
2023-04-09T12:06:14.826Z,10.48
2023-04-09T12:07:17.873Z,8.45
2023-04-09T12:08:25.112Z,9.75
2023-04-09T12:09:27.393Z,8.75
2023-04-09T12:10:31.228Z,8.93
2023-04-09T12:11:33.217Z,7.90
2023-04-09T12:12:46.609Z,8.57
2023-04-09T12:13:48.662Z,7.38
2023-04-09T12:14:52.019Z,9.48
2023-04-09T12:16:58.995Z,7.82
2023-04-09T12:18:01.615Z,7.03
2023-04-09T12:19:07.393Z,9.60
2023-04-09T12:20:09.977Z,9.35
2023-04-09T12:21:12.125Z,11.05
2023-04-09T12:22:14.057Z,8.80
2023-04-09T12:23:16.636Z,14.73
2023-04-09T12:24:20.588Z,7.45
2023-04-09T12:25:22.641Z,8.82
2023-04-09T12:26:24.646Z,9.32
2023-04-09T12:27:26.765Z,10.48
2023-04-09T12:28:29.498Z,8.40
2023-04-09T12:29:33.407Z,7.40
2023-04-09T12:30:35.819Z,9.77
2023-04-09T12:31:37.977Z,11.15
2023-04-09T12:32:40.118Z,11.40
2023-04-09T12:33:42.872Z,12.02
2023-04-09T12:34:45.026Z,10.32
2023-04-09T12:35:47.349Z,9.35
2023-04-09T12:36:49.586Z,12.27
2023-04-09T12:37:52.036Z,6.93
2023-04-09T12:38:54.162Z,10.95
2023-04-09T12:39:56.597Z,11.48
2023-04-09T12:40:58.535Z,9.65
2023-04-09T12:42:01.316Z,9.45
2023-04-09T12:43:03.373Z,9.48
2023-04-09T12:44:05.332Z,6.72
2023-04-09T12:45:11.503Z,10.95
2023-04-09T12:46:13.980Z,9.95
2023-04-09T12:47:16.277Z,12.90
2023-04-09T12:48:18.204Z,9.82
2023-04-09T12:49:20.235Z,15.45
2023-04-09T12:50:22.471Z,9.18
2023-04-09T12:51:25.530Z,8.02
2023-04-09T12:52:27.725Z,11.85
2023-04-09T12:53:29.616Z,10.25
2023-04-09T12:54:31.715Z,11.25
2023-04-09T12:55:33.990Z,7.13
2023-04-09T12:56:35.879Z,9.57
2023-04-09T12:57:39.758Z,8.60
2023-04-09T12:59:44.755Z,8.68
2023-04-09T13:00:47.051Z,15.90
2023-04-09T13:01:49.244Z,15.68
2023-04-09T13:02:52.989Z,10.57
2023-04-09T13:04:57.458Z,12.02
2023-04-09T13:05:59.730Z,15.80
2023-04-09T13:07:01.813Z,8.15
2023-04-09T13:08:03.947Z,12.00
2023-04-09T13:09:05.878Z,9.63
2023-04-09T13:10:08.262Z,12.68
2023-04-09T13:11:10.278Z,10.63
2023-04-09T13:12:13.053Z,11.18
2023-04-09T13:13:15.089Z,10.48
2023-04-09T13:14:17.037Z,11.10
2023-04-09T13:15:18.998Z,13.40
2023-04-09T13:16:21.540Z,12.15
2023-04-09T13:17:23.912Z,14.82
2023-04-09T13:18:26.387Z,12.63
2023-04-09T13:19:28.414Z,10.63
2023-04-09T13:20:30.964Z,12.93
2023-04-09T13:21:32.823Z,8.85
2023-04-09T13:22:34.777Z,10.63
2023-04-09T13:23:36.847Z,10.70
2023-04-09T13:24:39.713Z,12.63
2023-04-09T13:25:41.648Z,10.63
2023-04-09T13:26:43.600Z,9.23
2023-04-09T13:27:45.486Z,9.15
2023-04-09T13:28:47.595Z,10.38
2023-04-09T13:29:49.709Z,10.40
2023-04-09T13:30:52.989Z,9.73
2023-04-09T13:31:57.054Z,10.90
2023-04-09T13:32:59.056Z,9.40
2023-04-09T13:34:03.004Z,10.93
2023-04-09T13:35:07.109Z,11.90
2023-04-09T13:36:09.181Z,14.07
2023-04-09T13:37:11.275Z,10.48
2023-04-09T13:38:13.153Z,12.15
2023-04-09T13:39:15.056Z,8.95
2023-04-09T13:40:17.326Z,13.48
2023-04-09T13:41:20.324Z,15.05
2023-04-09T13:42:22.347Z,8.15
2023-04-09T13:43:28.180Z,16.63
2023-04-09T13:44:30.187Z,12.60
2023-04-09T13:45:32.242Z,11.13
2023-04-09T13:46:34.309Z,11.02
2023-04-09T13:47:36.818Z,10.45
2023-04-09T13:48:38.974Z,11.57
2023-04-09T13:49:42.149Z,12.98
2023-04-09T13:50:44.261Z,8.30
2023-04-09T13:51:46.788Z,14.73
2023-04-09T13:52:48.689Z,9.65
2023-04-09T13:53:50.970Z,15.75
2023-04-09T13:54:53.729Z,11.50
2023-04-09T13:55:55.759Z,9.07
2023-04-09T13:56:57.884Z,8.75
2023-04-09T13:57:59.810Z,14.27
2023-04-09T13:59:01.817Z,8.60